createdAt,value
2018-06-18T00:00:56.526Z,14.30
2018-06-18T00:03:25.327Z,14.30
2018-06-18T00:05:54.222Z,14.40
2018-06-18T00:08:23.024Z,14.40
2018-06-18T00:10:51.770Z,14.40
2018-06-18T00:13:20.738Z,14.50
2018-06-18T00:15:49.418Z,14.50
2018-06-18T00:18:18.234Z,14.50
2018-06-18T00:20:47.133Z,14.40
2018-06-18T00:23:15.994Z,14.30
2018-06-18T00:25:44.774Z,14.20
2018-06-18T00:28:13.609Z,14.30
2018-06-18T00:30:42.378Z,14.30
2018-06-18T00:33:11.218Z,14.30
2018-06-18T00:35:39.983Z,14.30
2018-06-18T00:38:08.886Z,14.30
2018-06-18T00:40:37.657Z,14.30
2018-06-18T00:43:06.851Z,14.30
2018-06-18T00:45:35.610Z,14.30
2018-06-18T00:48:04.368Z,14.10
2018-06-18T00:50:33.117Z,14.00
2018-06-18T00:53:02.646Z,14.00
2018-06-18T00:55:42.398Z,14.00
2018-06-18T00:58:11.190Z,14.10
2018-06-18T01:00:39.943Z,14.10
2018-06-18T01:03:08.735Z,14.10
2018-06-18T01:05:37.478Z,14.20
2018-06-18T01:08:06.368Z,14.30
2018-06-18T01:10:35.166Z,14.20
2018-06-18T01:13:04.070Z,14.30
2018-06-18T01:15:32.786Z,14.30
2018-06-18T01:18:01.530Z,14.30
2018-06-18T01:20:30.261Z,14.30
2018-06-18T01:23:14.922Z,14.30
2018-06-18T01:25:43.754Z,14.30
2018-06-18T01:28:12.510Z,14.40
2018-06-18T01:30:41.207Z,14.40
2018-06-18T01:33:09.988Z,14.30
2018-06-18T01:35:38.727Z,14.20
2018-06-18T01:38:07.582Z,14.10
2018-06-18T01:40:36.378Z,14.10
2018-06-18T01:43:05.446Z,14.10
2018-06-18T01:45:34.298Z,14.10
2018-06-18T01:48:03.094Z,14.10
2018-06-18T01:50:31.919Z,14.10
2018-06-18T01:53:00.656Z,14.00
2018-06-18T01:55:29.426Z,14.10
2018-06-18T01:57:59.137Z,14.10
2018-06-18T02:00:27.966Z,14.10
2018-06-18T02:02:56.733Z,14.10
2018-06-18T02:05:25.654Z,14.10
2018-06-18T02:07:54.497Z,13.90
2018-06-18T02:10:23.229Z,13.80
2018-06-18T02:12:52.119Z,13.70
2018-06-18T02:15:21.047Z,13.70
2018-06-18T02:17:49.841Z,13.80
2018-06-18T02:20:18.689Z,13.90
2018-06-18T02:22:47.535Z,14.00
2018-06-18T02:25:16.346Z,14.00
2018-06-18T02:27:50.424Z,14.10
2018-06-18T02:30:24.454Z,14.10
2018-06-18T02:32:58.487Z,14.10
2018-06-18T02:38:06.185Z,14.10
2018-06-18T02:40:40.286Z,14.10
2018-06-18T02:43:08.970Z,14.10
2018-06-18T02:45:37.762Z,14.10
2018-06-18T02:48:06.534Z,14.10
2018-06-18T02:50:35.370Z,14.10
2018-06-18T02:53:04.083Z,14.20
2018-06-18T02:55:32.841Z,14.20
2018-06-18T02:58:01.697Z,14.20
2018-06-18T03:00:30.426Z,14.20
2018-06-18T03:02:59.270Z,14.30
2018-06-18T03:05:28.162Z,14.30
2018-06-18T03:07:56.928Z,14.30
2018-06-18T03:10:25.646Z,14.40
2018-06-18T03:12:54.374Z,14.40
2018-06-18T03:15:23.106Z,14.40
2018-06-18T03:17:51.874Z,14.40
2018-06-18T03:20:26.046Z,14.40
2018-06-18T03:22:59.911Z,14.40
2018-06-18T03:25:33.686Z,14.40
2018-06-18T03:28:07.629Z,14.40
2018-06-18T03:30:36.455Z,14.40
2018-06-18T03:33:05.518Z,14.40
2018-06-18T03:35:34.331Z,14.40
2018-06-18T03:38:03.410Z,14.40
2018-06-18T03:40:32.140Z,14.50
2018-06-18T03:43:00.903Z,14.50
2018-06-18T03:45:31.386Z,14.50
2018-06-18T03:48:05.984Z,14.50
2018-06-18T03:50:34.668Z,14.50
2018-06-18T03:55:35.654Z,14.50
2018-06-18T03:58:08.791Z,14.50
2018-06-18T04:01:23.718Z,14.50
2018-06-18T04:03:57.806Z,14.50
2018-06-18T04:06:31.850Z,14.60
2018-06-18T04:09:05.722Z,14.50
2018-06-18T04:12:11.101Z,14.60
2018-06-18T04:14:39.970Z,14.70
2018-06-18T04:17:08.635Z,14.80
2018-06-18T04:19:37.367Z,14.80
2018-06-18T04:22:06.213Z,14.80
2018-06-18T04:24:34.896Z,14.80
2018-06-18T04:27:03.652Z,14.80
2018-06-18T04:29:32.410Z,15.00
2018-06-18T04:32:01.074Z,15.00
2018-06-18T04:34:36.298Z,14.90
2018-06-18T04:37:05.003Z,14.80
2018-06-18T04:39:33.681Z,14.80
2018-06-18T04:42:07.580Z,14.90
2018-06-18T04:44:41.664Z,15.10
2018-06-18T04:47:15.550Z,15.30
2018-06-18T04:49:49.437Z,15.50
2018-06-18T04:52:18.183Z,15.80
2018-06-18T04:54:46.866Z,15.90
2018-06-18T04:57:15.601Z,15.90
2018-06-18T04:59:50.558Z,15.90
2018-06-18T05:02:19.233Z,16.20
2018-06-18T05:07:16.449Z,16.00
2018-06-18T05:10:06.565Z,15.90
2018-06-18T05:12:36.072Z,16.40
2018-06-18T05:15:04.901Z,16.50
2018-06-18T05:17:33.713Z,16.40
2018-06-18T05:20:02.503Z,16.50
2018-06-18T05:22:31.178Z,16.20
2018-06-18T05:24:59.967Z,16.30
2018-06-18T05:27:30.896Z,16.30
2018-06-18T05:30:02.594Z,16.80
2018-06-18T05:32:31.314Z,16.90
2018-06-18T05:34:59.977Z,16.80
2018-06-18T05:37:35.293Z,16.70
2018-06-18T05:40:04.076Z,16.50
2018-06-18T05:42:32.759Z,16.60
2018-06-18T05:45:01.414Z,16.50
2018-06-18T05:47:31.027Z,16.10
2018-06-18T05:49:59.707Z,16.30
2018-06-18T05:52:28.419Z,16.30
2018-06-18T05:54:57.211Z,16.40
2018-06-18T05:57:25.891Z,16.40
2018-06-18T05:59:54.586Z,16.50
2018-06-18T06:02:23.386Z,16.80
2018-06-18T06:04:52.066Z,16.90
2018-06-18T06:07:20.816Z,16.90
2018-06-18T06:09:49.537Z,16.90
2018-06-18T06:12:18.284Z,16.90
2018-06-18T06:14:46.995Z,16.90
2018-06-18T06:17:15.730Z,16.90
2018-06-18T06:19:44.410Z,17.20
2018-06-18T06:22:13.131Z,17.10
2018-06-18T06:24:41.778Z,17.20
2018-06-18T06:27:10.458Z,17.30
2018-06-18T06:29:39.395Z,17.50
2018-06-18T06:32:08.042Z,17.30
2018-06-18T06:34:37.013Z,17.40
2018-06-18T06:37:05.890Z,17.30
2018-06-18T06:39:34.547Z,17.20
2018-06-18T06:44:33.147Z,17.50
2018-06-18T06:47:01.826Z,17.40
2018-06-18T06:49:30.590Z,17.50
2018-06-18T06:51:59.993Z,17.50
2018-06-18T06:54:28.678Z,17.70
2018-06-18T06:56:57.362Z,17.70
2018-06-18T06:59:26.073Z,17.30
2018-06-18T07:01:54.846Z,17.00
2018-06-18T07:04:23.622Z,16.90
2018-06-18T07:06:52.418Z,16.60
2018-06-18T07:09:21.137Z,16.70
2018-06-18T07:11:49.890Z,16.90
2018-06-18T07:16:46.934Z,16.60
2018-06-18T07:19:15.673Z,16.90
2018-06-18T07:21:44.398Z,17.00
2018-06-18T07:24:13.664Z,17.00
2018-06-18T07:26:42.502Z,17.00
2018-06-18T07:29:11.287Z,17.10
2018-06-18T07:31:40.008Z,17.00
2018-06-18T07:34:08.698Z,17.00
2018-06-18T07:39:07.306Z,17.40
2018-06-18T07:41:35.979Z,18.00
2018-06-18T07:44:04.745Z,18.10
2018-06-18T07:46:33.467Z,18.10
2018-06-18T07:49:02.182Z,18.20
2018-06-18T07:51:30.909Z,18.20
2018-06-18T07:53:59.579Z,18.50
2018-06-18T07:56:28.277Z,18.60
2018-06-18T07:58:56.954Z,18.80
2018-06-18T08:01:25.694Z,19.40
2018-06-18T08:03:54.378Z,19.70
2018-06-18T08:06:23.093Z,19.70
2018-06-18T08:08:51.780Z,19.80
2018-06-18T08:11:20.471Z,20.30
2018-06-18T08:13:49.142Z,20.10
2018-06-18T08:16:17.850Z,19.70
2018-06-18T08:18:46.629Z,19.50
2018-06-18T08:21:15.376Z,19.30
2018-06-18T08:23:44.226Z,19.20
2018-06-18T08:26:12.853Z,19.60
2018-06-18T08:28:46.590Z,20.00
2018-06-18T08:31:15.253Z,19.00
2018-06-18T08:33:43.957Z,19.50
2018-06-18T08:36:12.825Z,19.30
2018-06-18T08:38:41.490Z,20.00
2018-06-18T08:41:10.133Z,19.80
2018-06-18T08:43:38.810Z,19.90
2018-06-18T08:46:07.505Z,20.20
2018-06-18T08:48:41.474Z,20.50
2018-06-18T08:51:15.425Z,20.50
2018-06-18T08:53:49.235Z,20.50
2018-06-18T08:56:23.064Z,20.20
2018-06-18T08:58:57.112Z,20.10
2018-06-18T09:01:28.430Z,20.30
2018-06-18T09:04:02.355Z,20.30
2018-06-18T09:06:31.070Z,20.50
2018-06-18T09:08:59.942Z,20.10
2018-06-18T09:11:28.640Z,19.80
2018-06-18T09:13:57.322Z,19.50
2018-06-18T09:16:25.983Z,19.50
2018-06-18T09:18:54.675Z,19.60
2018-06-18T09:21:23.394Z,20.20
2018-06-18T09:23:52.071Z,20.70
2018-06-18T09:26:20.750Z,20.70
2018-06-18T09:28:49.411Z,21.00
2018-06-18T09:31:18.129Z,20.70
2018-06-18T09:33:46.903Z,20.40
2018-06-18T09:36:15.590Z,20.20
2018-06-18T09:38:44.261Z,19.80
2018-06-18T09:41:12.974Z,19.60
2018-06-18T09:43:41.640Z,19.40
2018-06-18T09:46:10.324Z,19.30
2018-06-18T09:48:44.282Z,19.30
2018-06-18T09:51:18.092Z,19.50
2018-06-18T09:53:51.962Z,20.10
2018-06-18T09:56:25.975Z,20.60
2018-06-18T09:58:59.960Z,20.70
2018-06-18T10:01:30.709Z,21.00
2018-06-18T10:04:00.075Z,20.70
2018-06-18T10:06:29.701Z,20.50
2018-06-18T10:09:02.658Z,20.10
2018-06-18T10:11:31.321Z,20.20
2018-06-18T10:14:00.008Z,20.20
2018-06-18T10:16:28.658Z,19.80
2018-06-18T10:18:57.386Z,19.80
2018-06-18T10:21:26.024Z,20.00
2018-06-18T10:23:54.770Z,20.20
2018-06-18T10:26:23.452Z,19.50
2018-06-18T10:28:52.334Z,20.00
2018-06-18T10:31:21.177Z,20.60
2018-06-18T10:33:55.078Z,20.10
2018-06-18T10:36:29.109Z,20.10
2018-06-18T10:39:03.125Z,19.90
2018-06-18T10:41:37.220Z,20.10
2018-06-18T10:44:05.983Z,20.10
2018-06-18T10:46:34.648Z,20.30
2018-06-18T10:49:03.493Z,20.70
2018-06-18T10:51:32.164Z,20.90
2018-06-18T10:54:00.929Z,21.20
2018-06-18T10:56:29.681Z,21.60
2018-06-18T10:58:58.340Z,21.40
2018-06-18T11:01:31.324Z,21.80
2018-06-18T11:04:00.561Z,22.70
2018-06-18T11:06:33.250Z,22.40
2018-06-18T11:09:01.970Z,22.30
2018-06-18T11:11:30.966Z,22.60
2018-06-18T11:13:59.737Z,22.40
2018-06-18T11:16:28.565Z,23.00
2018-06-18T11:19:02.397Z,23.40
2018-06-18T11:21:36.477Z,23.20
2018-06-18T11:24:10.454Z,23.40
2018-06-18T11:26:44.329Z,22.80
2018-06-18T11:29:13.101Z,22.90
2018-06-18T11:31:41.806Z,22.80
2018-06-18T11:34:10.537Z,22.60
2018-06-18T11:36:39.341Z,21.90
2018-06-18T11:39:09.355Z,21.80
2018-06-18T11:41:38.064Z,21.20
2018-06-18T11:44:06.809Z,20.40
2018-06-18T11:46:35.626Z,20.00
2018-06-18T11:49:04.450Z,19.80
2018-06-18T11:51:33.261Z,19.80
2018-06-18T11:54:01.902Z,20.00
2018-06-18T11:56:31.097Z,20.20
2018-06-18T12:01:07.841Z,20.30
2018-06-18T12:03:41.875Z,20.40
2018-06-18T12:06:15.726Z,21.10
2018-06-18T12:08:49.726Z,21.70
2018-06-18T12:11:18.556Z,22.00
2018-06-18T12:13:47.310Z,22.10
2018-06-18T12:16:16.113Z,22.00
2018-06-18T12:18:44.774Z,22.10
2018-06-18T12:23:41.893Z,22.40
2018-06-18T12:26:10.628Z,22.70
2018-06-18T12:28:39.313Z,22.30
2018-06-18T12:31:08.111Z,21.80
2018-06-18T12:33:37.006Z,21.90
2018-06-18T12:36:05.799Z,21.50
2018-06-18T12:38:34.482Z,21.00
2018-06-18T12:41:03.205Z,20.50
2018-06-18T12:43:35.380Z,20.00
2018-06-18T12:46:09.437Z,19.80
2018-06-18T12:48:43.478Z,19.60
2018-06-18T12:51:17.467Z,19.70
2018-06-18T12:53:51.317Z,19.70
2018-06-18T12:56:25.394Z,19.50
2018-06-18T12:58:54.245Z,19.30
2018-06-18T13:01:24.820Z,19.40
2018-06-18T13:03:53.568Z,19.30
2018-06-18T13:06:22.264Z,19.30
2018-06-18T13:08:50.954Z,19.20
2018-06-18T13:11:19.749Z,19.30
2018-06-18T13:13:48.398Z,19.20
2018-06-18T13:16:17.093Z,19.30
2018-06-18T13:18:45.858Z,19.10
2018-06-18T13:21:15.056Z,18.90
2018-06-18T13:23:43.978Z,18.80
2018-06-18T13:26:12.702Z,18.60
2018-06-18T13:28:41.443Z,18.50
2018-06-18T13:31:10.290Z,18.40
2018-06-18T13:33:39.080Z,18.20
2018-06-18T13:36:07.794Z,18.10
2018-06-18T13:38:41.803Z,18.00
2018-06-18T13:41:15.809Z,18.00
2018-06-18T13:43:49.902Z,18.00
2018-06-18T13:46:23.801Z,17.90
2018-06-18T13:48:55.762Z,17.90
2018-06-18T13:51:25.870Z,18.00
2018-06-18T13:53:55.007Z,18.00
2018-06-18T13:56:23.956Z,18.10
2018-06-18T13:58:53.326Z,18.10
2018-06-18T14:03:50.374Z,18.20
2018-06-18T14:06:19.126Z,18.30
2018-06-18T14:08:47.878Z,18.20
2018-06-18T14:11:16.570Z,18.20
2018-06-18T14:13:45.265Z,18.20
2018-06-18T14:16:13.982Z,18.20
2018-06-18T14:18:42.730Z,18.20
2018-06-18T14:21:11.413Z,18.20
2018-06-18T14:23:40.129Z,18.40
2018-06-18T14:26:08.814Z,18.30
2018-06-18T14:28:37.529Z,18.30
2018-06-18T14:31:11.702Z,18.10
2018-06-18T14:33:45.717Z,18.10
2018-06-18T14:36:19.630Z,18.10
2018-06-18T14:38:53.616Z,18.00
2018-06-18T14:41:22.403Z,18.00
2018-06-18T14:43:51.191Z,18.00
2018-06-18T14:46:19.957Z,18.00
2018-06-18T14:48:48.747Z,18.10
2018-06-18T14:51:17.490Z,18.20
2018-06-18T14:53:46.171Z,18.20
2018-06-18T14:56:19.714Z,18.30
2018-06-18T14:58:58.205Z,18.10
2018-06-18T15:01:26.904Z,18.20
2018-06-18T15:03:55.731Z,18.10
2018-06-18T15:06:24.350Z,18.00
2018-06-18T15:08:53.105Z,18.00
2018-06-18T15:13:50.282Z,17.90
2018-06-18T15:16:24.258Z,17.70
2018-06-18T15:18:52.954Z,17.40
2018-06-18T15:21:21.634Z,17.30
2018-06-18T15:23:50.365Z,17.40
2018-06-18T15:26:19.058Z,17.80
2018-06-18T15:28:47.750Z,18.20
2018-06-18T15:31:16.466Z,18.30
2018-06-18T15:33:45.174Z,18.10
2018-06-18T15:36:13.894Z,18.00
2018-06-18T15:38:42.618Z,17.80
2018-06-18T15:41:11.317Z,17.60
2018-06-18T15:43:39.970Z,17.50
2018-06-18T15:46:08.681Z,17.50
2018-06-18T15:48:37.326Z,17.40
2018-06-18T15:51:06.046Z,17.30
2018-06-18T15:53:34.772Z,17.30
2018-06-18T15:56:03.609Z,17.30
2018-06-18T15:58:32.317Z,17.40
2018-06-18T16:03:29.320Z,17.40
2018-06-18T16:05:58.026Z,17.40
2018-06-18T16:08:26.779Z,17.40
2018-06-18T16:10:55.493Z,17.40
2018-06-18T16:13:24.172Z,17.40
2018-06-18T16:15:52.887Z,17.40
2018-06-18T16:18:21.579Z,17.40
2018-06-18T16:20:50.279Z,17.50
2018-06-18T16:23:19.069Z,17.50
2018-06-18T16:25:47.825Z,17.50
2018-06-18T16:28:16.632Z,17.60
2018-06-18T16:30:45.350Z,17.60
2018-06-18T16:33:14.062Z,17.70
2018-06-18T16:35:42.749Z,17.60
2018-06-18T16:38:11.536Z,17.60
2018-06-18T16:40:40.206Z,17.60
2018-06-18T16:43:08.980Z,17.60
2018-06-18T16:45:37.736Z,17.60
2018-06-18T16:48:06.430Z,17.50
2018-06-18T16:50:35.131Z,17.50
2018-06-18T16:53:03.861Z,17.50
2018-06-18T16:55:32.529Z,17.60
2018-06-18T16:58:01.267Z,17.50
2018-06-18T17:00:30.026Z,17.50
2018-06-18T17:02:58.732Z,17.60
2018-06-18T17:05:27.522Z,17.70
2018-06-18T17:07:56.214Z,17.70
2018-06-18T17:10:24.965Z,17.70
2018-06-18T17:12:53.774Z,17.70
2018-06-18T17:15:22.526Z,17.70
2018-06-18T17:17:51.242Z,17.50
2018-06-18T17:20:20.031Z,17.40
2018-06-18T17:22:48.732Z,17.30
2018-06-18T17:25:18.518Z,17.20
2018-06-18T17:27:47.234Z,17.10
2018-06-18T17:32:44.368Z,17.00
2018-06-18T17:35:13.247Z,16.80
2018-06-18T17:37:41.953Z,16.80
2018-06-18T17:40:10.658Z,16.80
2018-06-18T17:42:39.326Z,16.80
2018-06-18T17:45:08.643Z,16.80
2018-06-18T17:47:37.318Z,16.80
2018-06-18T17:50:06.189Z,16.80
2018-06-18T17:52:34.930Z,16.80
2018-06-18T17:55:03.653Z,16.80
2018-06-18T17:57:33.084Z,16.90
2018-06-18T18:00:01.839Z,16.80
2018-06-18T18:02:30.563Z,16.80
2018-06-18T18:04:59.253Z,16.90
2018-06-18T18:07:28.938Z,16.80
2018-06-18T18:09:58.119Z,16.80
2018-06-18T18:12:26.874Z,16.80
2018-06-18T18:14:55.626Z,16.70
2018-06-18T18:17:24.297Z,16.80
2018-06-18T18:19:53.059Z,16.90
2018-06-18T18:22:21.747Z,16.80
2018-06-18T18:24:50.460Z,16.70
2018-06-18T18:27:19.538Z,16.80
2018-06-18T18:32:16.629Z,16.90
2018-06-18T18:34:45.324Z,16.90
2018-06-18T18:37:14.059Z,16.80
2018-06-18T18:39:42.794Z,16.80
2018-06-18T18:42:11.545Z,16.60
2018-06-18T18:44:40.287Z,16.60
2018-06-18T18:47:08.979Z,16.50
2018-06-18T18:49:37.755Z,16.50
2018-06-18T18:52:06.650Z,16.40
2018-06-18T18:55:49.885Z,16.30
2018-06-18T18:59:39.536Z,16.30
2018-06-18T19:02:08.418Z,16.40
2018-06-18T19:04:44.228Z,16.50
2018-06-18T19:07:13.081Z,16.50
2018-06-18T19:09:52.285Z,16.50
2018-06-18T19:12:21.115Z,16.50
2018-06-18T19:17:18.162Z,16.50
2018-06-18T19:22:19.530Z,16.60
2018-06-18T19:24:49.608Z,16.60
2018-06-18T19:27:18.330Z,16.70
2018-06-18T19:29:47.130Z,16.70
2018-06-18T19:32:16.636Z,16.70
2018-06-18T19:34:46.730Z,16.70
2018-06-18T19:37:18.652Z,16.70
2018-06-18T19:39:49.188Z,16.60
2018-06-18T19:42:18.854Z,16.60
2018-06-18T19:47:28.577Z,16.50
2018-06-18T19:49:57.277Z,16.50
2018-06-18T19:52:26.115Z,16.40
2018-06-18T19:54:57.961Z,16.40
2018-06-18T19:57:26.749Z,16.30
2018-06-18T19:59:55.529Z,16.30
2018-06-18T20:02:24.331Z,16.30
2018-06-18T20:04:53.083Z,16.40
2018-06-18T20:07:23.270Z,16.40
2018-06-18T20:09:52.105Z,16.30
2018-06-18T20:12:20.857Z,16.40
2018-06-18T20:14:50.895Z,16.40
2018-06-18T20:17:19.602Z,16.40
2018-06-18T20:19:48.298Z,16.30
2018-06-18T20:22:17.051Z,16.30
2018-06-18T20:24:46.615Z,16.30
2018-06-18T20:27:15.332Z,16.30
2018-06-18T20:29:44.069Z,16.20
2018-06-18T20:32:12.954Z,16.20
2018-06-18T20:34:42.658Z,16.20
2018-06-18T20:37:11.321Z,16.20
2018-06-18T20:39:40.084Z,16.10
2018-06-18T20:42:08.802Z,16.10
2018-06-18T20:44:37.559Z,16.00
2018-06-18T20:47:06.456Z,16.00
2018-06-18T20:49:35.166Z,16.00
2018-06-18T20:52:04.018Z,16.00
2018-06-18T20:54:32.864Z,16.00
2018-06-18T20:57:01.619Z,16.10
2018-06-18T20:59:30.365Z,16.10
2018-06-18T21:01:59.137Z,16.10
2018-06-18T21:04:27.861Z,16.10
2018-06-18T21:06:56.663Z,16.10
2018-06-18T21:09:25.402Z,16.10
2018-06-18T21:11:54.139Z,16.20
2018-06-18T21:14:22.862Z,16.10
2018-06-18T21:16:51.678Z,16.10
2018-06-18T21:19:20.440Z,16.10
2018-06-18T21:21:49.221Z,16.10
2018-06-18T21:24:17.901Z,16.10
2018-06-18T21:26:46.598Z,16.10
2018-06-18T21:29:15.320Z,16.10
2018-06-18T21:31:44.041Z,16.10
2018-06-18T21:36:41.086Z,16.10
2018-06-18T21:39:11.209Z,16.00
2018-06-18T21:41:40.081Z,16.00
2018-06-18T21:44:13.309Z,16.00
2018-06-18T21:46:42.020Z,16.00
2018-06-18T21:49:10.955Z,16.00
2018-06-18T21:51:39.753Z,16.00
2018-06-18T21:54:08.550Z,16.00
2018-06-18T21:56:37.336Z,15.90
2018-06-18T21:59:06.086Z,15.90
2018-06-18T22:01:41.560Z,15.90
2018-06-18T22:04:10.361Z,15.90
2018-06-18T22:06:39.093Z,15.80
2018-06-18T22:11:38.658Z,15.80
2018-06-18T22:14:07.450Z,15.80
2018-06-18T22:16:36.157Z,15.80
2018-06-18T22:19:05.031Z,15.70
2018-06-18T22:21:33.769Z,15.70
2018-06-18T22:24:02.679Z,15.80
2018-06-18T22:26:31.501Z,15.70
2018-06-18T22:29:00.254Z,15.70
2018-06-18T22:31:29.178Z,15.70
2018-06-18T22:33:57.971Z,15.60
2018-06-18T22:36:26.757Z,15.60
2018-06-18T22:38:55.558Z,15.60
2018-06-18T22:41:24.497Z,15.50
2018-06-18T22:43:53.406Z,15.50
2018-06-18T22:46:22.298Z,15.50
2018-06-18T22:48:51.126Z,15.50
2018-06-18T22:51:19.826Z,15.50
2018-06-18T22:53:48.632Z,15.50
2018-06-18T22:56:17.354Z,15.50
2018-06-18T22:58:46.094Z,15.40
2018-06-18T23:01:14.979Z,15.40
2018-06-18T23:03:43.729Z,15.40
2018-06-18T23:06:12.494Z,15.30
2018-06-18T23:08:41.234Z,15.30
2018-06-18T23:13:39.066Z,15.10
2018-06-18T23:16:08.785Z,15.10
2018-06-18T23:18:37.583Z,15.20
2018-06-18T23:21:06.411Z,15.10
2018-06-18T23:23:35.242Z,15.20
2018-06-18T23:26:04.013Z,15.10
2018-06-18T23:28:40.454Z,15.10
2018-06-18T23:31:09.262Z,15.10
2018-06-18T23:33:38.032Z,15.10
2018-06-18T23:36:06.897Z,15.10
2018-06-18T23:38:35.678Z,15.10
2018-06-18T23:41:05.394Z,15.00
2018-06-18T23:43:34.110Z,14.90
2018-06-18T23:46:03.243Z,14.80
2018-06-18T23:48:32.042Z,14.70
2018-06-18T23:51:00.997Z,14.60
2018-06-18T23:53:30.890Z,14.60
2018-06-18T23:55:59.739Z,14.50
2018-06-18T23:58:28.972Z,14.60
